createdAt,value
2023-03-15T00:02:10.432Z,99262.63
2023-03-15T00:04:38.417Z,99262.63
2023-03-15T00:07:06.016Z,99266.00
2023-03-15T00:09:34.607Z,99275.44
2023-03-15T00:12:02.750Z,99276.13
2023-03-15T00:14:31.743Z,99272.56
2023-03-15T00:16:59.243Z,99283.69
2023-03-15T00:19:27.461Z,99284.53
2023-03-15T00:21:54.921Z,99286.25
2023-03-15T00:24:25.023Z,99288.22
2023-03-15T00:26:52.943Z,99284.94
2023-03-15T00:29:20.685Z,99290.25
2023-03-15T00:31:48.220Z,99285.37
2023-03-15T00:34:16.025Z,99292.75
2023-03-15T00:36:43.984Z,99294.47
2023-03-15T00:39:11.586Z,99289.22
2023-03-15T00:41:40.323Z,99292.41
2023-03-15T00:44:07.880Z,99293.25
2023-03-15T00:46:35.356Z,99297.53
2023-03-15T00:49:03.543Z,99292.97
2023-03-15T00:51:31.297Z,99300.72
2023-03-15T00:53:58.945Z,99298.03
2023-03-15T00:56:28.176Z,99290.44
2023-03-15T00:58:55.760Z,99290.06
2023-03-15T01:01:25.981Z,99281.19
2023-03-15T01:03:54.404Z,99284.66
2023-03-15T01:06:25.064Z,99274.56
2023-03-15T01:08:55.776Z,99269.28
2023-03-15T01:11:26.530Z,99262.44
2023-03-15T01:13:56.216Z,99256.22
2023-03-15T01:16:24.187Z,99264.06
2023-03-15T01:18:52.457Z,99265.31
2023-03-15T01:21:21.561Z,99270.44
2023-03-15T01:23:49.701Z,99279.66
2023-03-15T01:26:17.979Z,99280.47
2023-03-15T01:28:45.949Z,99293.69
2023-03-15T01:31:25.420Z,99294.03
2023-03-15T01:33:53.695Z,99300.00
2023-03-15T01:36:21.585Z,99293.09
2023-03-15T01:38:52.433Z,99286.25
2023-03-15T01:41:20.440Z,99289.09
2023-03-15T01:43:48.815Z,99280.94
2023-03-15T01:46:26.911Z,99282.34
2023-03-15T01:49:12.584Z,99276.44
2023-03-15T01:51:52.585Z,99283.75
2023-03-15T01:54:26.067Z,99275.94
2023-03-15T01:57:08.586Z,99285.81
2023-03-15T01:59:40.198Z,99282.84
2023-03-15T02:02:08.343Z,99288.00
2023-03-15T02:04:42.380Z,99280.50
2023-03-15T02:07:10.396Z,99284.72
2023-03-15T02:09:50.156Z,99287.56
2023-03-15T02:12:18.801Z,99279.84
2023-03-15T02:14:50.898Z,99279.13
2023-03-15T02:17:21.018Z,99287.19
2023-03-15T02:19:55.185Z,99288.88
2023-03-15T02:22:42.532Z,99286.94
2023-03-15T02:25:37.351Z,99296.62
2023-03-15T02:28:07.214Z,99293.22
2023-03-15T02:30:36.053Z,99295.84
2023-03-15T02:33:06.344Z,99294.34
2023-03-15T02:35:34.359Z,99304.56
2023-03-15T02:38:02.699Z,99298.47
2023-03-15T02:40:32.106Z,99296.78
2023-03-15T02:43:04.983Z,99293.53
2023-03-15T02:45:33.444Z,99286.66
2023-03-15T02:48:02.528Z,99285.94
2023-03-15T02:50:30.058Z,99277.22
2023-03-15T02:52:57.724Z,99274.91
2023-03-15T02:55:25.539Z,99283.69
2023-03-15T02:57:53.071Z,99274.31
2023-03-15T03:00:21.853Z,99274.53
2023-03-15T03:02:49.722Z,99270.19
2023-03-15T03:05:17.925Z,99274.59
2023-03-15T03:07:45.885Z,99268.03
2023-03-15T03:10:16.750Z,99274.34
2023-03-15T03:12:45.194Z,99269.94
2023-03-15T03:15:13.017Z,99262.53
2023-03-15T03:17:41.512Z,99266.78
2023-03-15T03:20:11.630Z,99274.53
2023-03-15T03:22:41.616Z,99266.09
2023-03-15T03:25:12.450Z,99264.78
2023-03-15T03:27:40.975Z,99264.06
2023-03-15T03:30:12.683Z,99263.97
2023-03-15T03:32:43.860Z,99273.59
2023-03-15T03:35:14.825Z,99273.78
2023-03-15T03:37:43.724Z,99287.66
2023-03-15T03:40:13.657Z,99272.28
2023-03-15T03:42:41.873Z,99274.81
2023-03-15T03:45:09.853Z,99283.91
2023-03-15T03:47:37.548Z,99267.34
2023-03-15T03:50:06.618Z,99274.44
2023-03-15T03:52:35.407Z,99273.59
2023-03-15T03:55:03.858Z,99271.19
2023-03-15T03:57:31.770Z,99262.37
2023-03-15T04:00:00.086Z,99272.38
2023-03-15T04:02:28.135Z,99265.62
2023-03-15T04:04:56.258Z,99280.25
2023-03-15T04:07:23.794Z,99260.66
2023-03-15T04:09:51.847Z,99261.63
2023-03-15T04:12:20.587Z,99269.47
2023-03-15T04:14:48.268Z,99267.59
2023-03-15T04:17:16.142Z,99268.53
2023-03-15T04:19:46.970Z,99267.97
2023-03-15T04:22:15.508Z,99256.91
2023-03-15T04:24:43.331Z,99273.56
2023-03-15T04:27:14.778Z,99261.41
2023-03-15T04:29:43.923Z,99268.59
2023-03-15T04:32:12.800Z,99260.19
2023-03-15T04:34:42.026Z,99265.69
2023-03-15T04:37:10.699Z,99270.09
2023-03-15T04:39:39.290Z,99268.75
2023-03-15T04:42:08.109Z,99274.84
2023-03-15T04:44:35.846Z,99273.50
2023-03-15T04:47:03.996Z,99272.84
2023-03-15T04:49:32.203Z,99275.56
2023-03-15T04:51:59.987Z,99275.00
2023-03-15T04:54:28.082Z,99278.63
2023-03-15T04:56:55.704Z,99271.78
2023-03-15T04:59:23.677Z,99273.66
2023-03-15T05:01:52.010Z,99278.13
2023-03-15T05:04:19.797Z,99282.25
2023-03-15T05:06:47.568Z,99285.81
2023-03-15T05:09:19.278Z,99281.69
2023-03-15T05:11:47.130Z,99300.09
2023-03-15T05:14:14.882Z,99295.72
2023-03-15T05:16:43.342Z,99301.88
2023-03-15T05:19:11.530Z,99310.00
2023-03-15T05:21:39.477Z,99306.03
2023-03-15T05:24:07.751Z,99313.78
2023-03-15T05:26:35.512Z,99324.50
2023-03-15T05:29:03.906Z,99329.44
2023-03-15T05:31:37.204Z,99325.34
2023-03-15T05:34:06.599Z,99315.41
2023-03-15T05:36:34.960Z,99318.16
2023-03-15T05:39:03.325Z,99321.03
2023-03-15T05:41:31.738Z,99324.91
2023-03-15T05:44:00.243Z,99324.31
2023-03-15T05:46:29.665Z,99316.88
2023-03-15T05:48:58.303Z,99320.75
2023-03-15T05:51:26.586Z,99325.38
2023-03-15T05:53:54.956Z,99330.59
2023-03-15T05:56:22.546Z,99322.41
2023-03-15T05:58:50.861Z,99315.72
2023-03-15T06:01:18.706Z,99323.41
2023-03-15T06:03:47.131Z,99321.19
2023-03-15T06:06:15.464Z,99328.19
2023-03-15T06:08:43.181Z,99334.34
2023-03-15T06:11:11.058Z,99333.06
2023-03-15T06:13:38.813Z,99320.97
2023-03-15T06:16:07.214Z,99325.13
2023-03-15T06:18:36.844Z,99330.50
2023-03-15T06:21:04.802Z,99330.50
2023-03-15T06:23:32.510Z,99331.59
2023-03-15T06:26:00.265Z,99336.34
2023-03-15T06:28:29.732Z,99339.91
2023-03-15T06:30:57.659Z,99341.59
2023-03-15T06:33:25.891Z,99344.44
2023-03-15T06:35:53.478Z,99345.50
2023-03-15T06:38:21.618Z,99355.97
2023-03-15T06:40:49.559Z,99343.97
2023-03-15T06:43:19.647Z,99356.81
2023-03-15T06:45:47.435Z,99345.19
2023-03-15T06:48:16.092Z,99361.44
2023-03-15T06:50:47.269Z,99367.63
2023-03-15T06:53:16.334Z,99362.50
2023-03-15T06:55:44.998Z,99375.87
2023-03-15T06:58:13.123Z,99367.03
2023-03-15T07:00:42.924Z,99380.94
2023-03-15T07:03:10.629Z,99382.00
2023-03-15T07:05:38.375Z,99391.00
2023-03-15T07:08:06.918Z,99402.19
2023-03-15T07:10:35.649Z,99400.50
2023-03-15T07:13:04.428Z,99393.59
2023-03-15T07:15:32.521Z,99385.06
2023-03-15T07:18:00.715Z,99398.28
2023-03-15T07:20:28.403Z,99388.53
2023-03-15T07:22:56.296Z,99396.50
2023-03-15T07:25:25.913Z,99395.81
2023-03-15T07:27:54.007Z,99387.22
2023-03-15T07:30:22.158Z,99391.59
2023-03-15T07:32:50.932Z,99399.41
2023-03-15T07:35:18.588Z,99388.28
2023-03-15T07:37:46.734Z,99396.19
2023-03-15T07:40:16.387Z,99398.00
2023-03-15T07:42:44.325Z,99411.06
2023-03-15T07:45:13.702Z,99410.31
2023-03-15T07:47:41.337Z,99411.22
2023-03-15T07:50:10.599Z,99413.19
2023-03-15T07:52:38.915Z,99423.50
2023-03-15T07:55:08.397Z,99424.56
2023-03-15T07:57:39.831Z,99421.13
2023-03-15T08:00:09.352Z,99425.50
2023-03-15T08:02:40.369Z,99431.78
2023-03-15T08:05:08.422Z,99429.44
2023-03-15T08:07:36.808Z,99433.94
2023-03-15T08:10:06.260Z,99433.03
2023-03-15T08:12:35.339Z,99428.31
2023-03-15T08:15:02.977Z,99419.06
2023-03-15T08:17:30.841Z,99424.28
2023-03-15T08:19:59.131Z,99415.03
2023-03-15T08:22:27.171Z,99412.38
2023-03-15T08:24:54.634Z,99408.94
2023-03-15T08:27:22.428Z,99403.91
2023-03-15T08:29:53.446Z,99403.91
2023-03-15T08:32:21.664Z,99414.91
2023-03-15T08:34:49.595Z,99413.56
2023-03-15T08:37:17.127Z,99427.31
2023-03-15T08:39:44.849Z,99420.97
2023-03-15T08:42:12.940Z,99429.59
2023-03-15T08:44:40.557Z,99421.91
2023-03-15T08:47:08.338Z,99435.69
2023-03-15T08:49:36.272Z,99436.72
2023-03-15T08:52:04.080Z,99436.50
2023-03-15T08:54:31.723Z,99448.75
2023-03-15T08:56:59.482Z,99453.91
2023-03-15T08:59:31.693Z,99457.38
2023-03-15T09:02:01.023Z,99461.66
2023-03-15T09:04:28.774Z,99454.88
2023-03-15T09:06:56.597Z,99455.53
2023-03-15T09:09:24.552Z,99454.69
2023-03-15T09:11:52.380Z,99465.81
2023-03-15T09:14:20.240Z,99457.06
2023-03-15T09:16:48.406Z,99460.34
2023-03-15T09:19:16.060Z,99467.16
2023-03-15T09:21:45.298Z,99463.72
2023-03-15T09:24:13.524Z,99475.22
2023-03-15T09:26:41.215Z,99471.75
2023-03-15T09:29:09.646Z,99485.72
2023-03-15T09:31:38.217Z,99483.37
2023-03-15T09:34:05.920Z,99489.59
2023-03-15T09:36:33.797Z,99490.87
2023-03-15T09:39:01.723Z,99479.56
2023-03-15T09:41:43.353Z,99491.13
2023-03-15T09:44:29.671Z,99491.13
2023-03-15T09:47:13.789Z,99488.69
2023-03-15T09:49:52.270Z,99489.59
2023-03-15T09:52:35.321Z,99500.16
2023-03-15T09:55:23.668Z,99487.38
2023-03-15T09:58:01.182Z,99496.00
2023-03-15T10:00:45.703Z,99508.44
2023-03-15T10:03:21.573Z,99497.44
2023-03-15T10:05:54.613Z,99502.50
2023-03-15T10:08:22.490Z,99511.31
2023-03-15T10:11:04.306Z,99506.16
2023-03-15T10:13:44.372Z,99501.25
2023-03-15T10:16:43.060Z,99506.34
2023-03-15T10:19:14.018Z,99513.63
2023-03-15T10:22:01.031Z,99514.38
2023-03-15T10:24:39.529Z,99514.69
2023-03-15T10:27:22.332Z,99543.44
2023-03-15T10:29:56.713Z,99527.84
2023-03-15T10:32:31.408Z,99523.88
2023-03-15T10:34:59.937Z,99535.81
2023-03-15T10:37:27.508Z,99532.59
2023-03-15T10:39:59.737Z,99537.06
2023-03-15T10:42:30.116Z,99557.09
2023-03-15T10:44:59.056Z,99560.75
2023-03-15T10:47:27.554Z,99549.41
2023-03-15T10:49:59.508Z,99559.09
2023-03-15T10:52:39.903Z,99559.16
2023-03-15T10:55:34.496Z,99552.37
2023-03-15T10:58:25.738Z,99543.47
2023-03-15T11:01:07.434Z,99561.78
2023-03-15T11:03:36.948Z,99541.84
2023-03-15T11:06:24.745Z,99561.47
2023-03-15T11:08:52.615Z,99545.84
2023-03-15T11:11:21.426Z,99558.78
2023-03-15T11:14:00.779Z,99557.91
2023-03-15T11:16:34.554Z,99558.56
2023-03-15T11:19:03.793Z,99571.47
2023-03-15T11:21:34.265Z,99565.22
2023-03-15T11:24:04.426Z,99572.00
2023-03-15T11:26:39.258Z,99570.28
2023-03-15T11:29:31.736Z,99577.03
2023-03-15T11:32:20.745Z,99584.00
2023-03-15T11:35:06.781Z,99580.16
2023-03-15T11:37:45.865Z,99583.50
2023-03-15T11:40:32.672Z,99585.00
2023-03-15T11:43:17.421Z,99581.41
2023-03-15T11:45:49.270Z,99595.94
2023-03-15T11:49:02.805Z,99594.09
2023-03-15T11:51:35.750Z,99594.97
2023-03-15T11:54:14.801Z,99629.59
2023-03-15T11:56:48.541Z,99615.41
2023-03-15T11:59:25.463Z,99612.81
2023-03-15T12:02:01.617Z,99620.59
2023-03-15T12:04:32.453Z,99622.16
2023-03-15T12:07:03.517Z,99626.84
2023-03-15T12:09:36.404Z,99635.50
2023-03-15T12:12:06.662Z,99613.53
2023-03-15T12:14:36.227Z,99634.38
2023-03-15T12:17:45.253Z,99626.38
2023-03-15T12:20:20.300Z,99631.78
2023-03-15T12:22:50.601Z,99630.13
2023-03-15T12:25:21.208Z,99638.59
2023-03-15T12:27:51.377Z,99640.25
2023-03-15T12:30:42.995Z,99644.25
2023-03-15T12:33:16.437Z,99643.47
2023-03-15T12:35:44.647Z,99664.38
2023-03-15T12:38:23.111Z,99656.78
2023-03-15T12:40:56.090Z,99662.62
2023-03-15T12:43:43.363Z,99670.16
2023-03-15T12:46:38.887Z,99673.53
2023-03-15T12:49:26.664Z,99678.75
2023-03-15T12:51:59.324Z,99668.28
2023-03-15T12:54:33.443Z,99681.72
2023-03-15T12:57:03.831Z,99678.88
2023-03-15T12:59:45.141Z,99682.25
2023-03-15T13:02:35.893Z,99688.47
2023-03-15T13:05:10.629Z,99685.12
2023-03-15T13:07:54.003Z,99668.84
2023-03-15T13:10:32.899Z,99684.19
2023-03-15T13:13:08.389Z,99687.53
2023-03-15T13:15:59.178Z,99695.97
2023-03-15T13:18:30.341Z,99699.16
2023-03-15T13:21:36.784Z,99701.00
2023-03-15T13:24:12.598Z,99697.28
2023-03-15T13:26:51.336Z,99715.62
2023-03-15T13:29:23.451Z,99715.62
2023-03-15T13:32:18.725Z,99714.91
2023-03-15T13:34:47.653Z,99732.81
2023-03-15T13:37:16.678Z,99722.91
2023-03-15T13:40:16.003Z,99732.25
2023-03-15T13:42:43.818Z,99734.59
2023-03-15T13:45:12.059Z,99732.19
2023-03-15T13:47:41.451Z,99733.38
2023-03-15T13:50:20.527Z,99727.69
2023-03-15T13:52:48.537Z,99740.72
2023-03-15T13:55:20.729Z,99758.22
2023-03-15T13:57:54.699Z,99750.31
2023-03-15T14:00:23.953Z,99757.47
2023-03-15T14:02:57.891Z,99764.66
2023-03-15T14:05:29.071Z,99769.59
2023-03-15T14:07:59.993Z,99769.16
2023-03-15T14:10:33.798Z,99772.50
2023-03-15T14:13:34.740Z,99778.84
2023-03-15T14:16:08.050Z,99780.72
2023-03-15T14:18:38.147Z,99777.41
2023-03-15T14:21:15.655Z,99795.19
2023-03-15T14:23:46.217Z,99780.28
2023-03-15T14:26:19.694Z,99795.75
2023-03-15T14:28:55.059Z,99786.78
2023-03-15T14:31:25.939Z,99787.75
2023-03-15T14:34:04.333Z,99802.00
2023-03-15T14:36:35.542Z,99791.59
2023-03-15T14:39:03.809Z,99787.63
2023-03-15T14:41:37.218Z,99802.31
2023-03-15T14:44:05.011Z,99813.78
2023-03-15T14:46:32.523Z,99817.47
2023-03-15T14:49:01.011Z,99817.16
2023-03-15T14:51:29.133Z,99828.41
2023-03-15T14:53:57.468Z,99833.78
2023-03-15T14:56:25.281Z,99842.53
2023-03-15T14:58:54.321Z,99841.53
2023-03-15T15:01:26.611Z,99858.09
2023-03-15T15:03:58.398Z,99859.16
2023-03-15T15:06:27.366Z,99849.78
2023-03-15T15:08:57.134Z,99850.88
2023-03-15T15:11:26.299Z,99849.78
2023-03-15T15:13:54.908Z,99851.97
2023-03-15T15:16:22.774Z,99858.16
2023-03-15T15:18:50.556Z,99861.34
2023-03-15T15:21:25.979Z,99857.28
2023-03-15T15:23:58.801Z,99860.47
2023-03-15T15:26:28.744Z,99872.06
2023-03-15T15:28:57.186Z,99870.06
2023-03-15T15:31:27.182Z,99874.31
2023-03-15T15:33:55.756Z,99880.47
2023-03-15T15:36:35.316Z,99880.72
2023-03-15T15:39:07.125Z,99893.06
2023-03-15T15:41:35.478Z,99893.22
2023-03-15T15:44:03.084Z,99909.75
2023-03-15T15:46:30.613Z,99920.25
2023-03-15T15:48:58.939Z,99930.84
2023-03-15T15:51:38.637Z,99937.94
2023-03-15T15:54:06.744Z,99932.22
2023-03-15T15:56:44.150Z,99947.75
2023-03-15T15:59:14.979Z,99960.84
2023-03-15T16:01:59.099Z,99967.97
2023-03-15T16:04:28.548Z,99986.22
2023-03-15T16:06:59.493Z,99988.88
2023-03-15T16:09:30.175Z,99988.25
2023-03-15T16:11:58.625Z,99992.00
2023-03-15T16:14:26.489Z,100001.62
2023-03-15T16:16:54.237Z,99999.91
2023-03-15T16:19:22.312Z,99988.06
2023-03-15T16:21:51.916Z,99998.41
2023-03-15T16:24:26.511Z,100001.12
2023-03-15T16:27:01.448Z,100016.69
2023-03-15T16:29:47.374Z,100002.87
2023-03-15T16:32:22.491Z,100016.87
2023-03-15T16:34:57.712Z,100014.16
2023-03-15T16:37:30.422Z,100015.91
2023-03-15T16:40:00.933Z,100027.56
2023-03-15T16:42:29.255Z,100015.53
2023-03-15T16:44:57.042Z,100020.66
2023-03-15T16:47:24.894Z,100027.72
2023-03-15T16:49:55.895Z,100033.03
2023-03-15T16:52:23.931Z,100040.00
2023-03-15T16:54:51.606Z,100051.56
2023-03-15T16:57:22.217Z,100052.41
2023-03-15T16:59:51.967Z,100058.44
2023-03-15T17:02:25.415Z,100068.81
2023-03-15T17:04:53.824Z,100077.44
2023-03-15T17:07:25.800Z,100075.63
2023-03-15T17:09:53.940Z,100085.31
2023-03-15T17:12:28.545Z,100085.25
2023-03-15T17:14:58.831Z,100088.81
2023-03-15T17:17:28.322Z,100099.97
2023-03-15T17:19:56.550Z,100111.19
2023-03-15T17:22:25.374Z,100115.53
2023-03-15T17:24:53.777Z,100116.38
2023-03-15T17:27:33.844Z,100119.19
2023-03-15T17:30:24.204Z,100133.81
2023-03-15T17:32:52.577Z,100138.16
2023-03-15T17:35:21.991Z,100134.75
2023-03-15T17:37:50.673Z,100148.59
2023-03-15T17:40:22.265Z,100159.78
2023-03-15T17:42:51.561Z,100154.59
2023-03-15T17:45:24.664Z,100168.44
2023-03-15T17:47:54.260Z,100165.84
2023-03-15T17:50:24.246Z,100178.00
2023-03-15T17:52:57.617Z,100168.31
2023-03-15T17:55:26.912Z,100177.03
2023-03-15T17:57:55.792Z,100177.03
2023-03-15T18:00:24.965Z,100192.53
2023-03-15T18:02:55.845Z,100195.12
2023-03-15T18:05:30.062Z,100190.75
2023-03-15T18:07:59.611Z,100183.00
2023-03-15T18:10:34.775Z,100195.03
2023-03-15T18:13:04.120Z,100195.97
2023-03-15T18:15:31.893Z,100205.50
2023-03-15T18:17:59.943Z,100201.16
2023-03-15T18:20:28.923Z,100196.00
2023-03-15T18:22:56.761Z,100206.28
2023-03-15T18:25:27.070Z,100215.03
2023-03-15T18:27:55.111Z,100220.09
2023-03-15T18:30:25.323Z,100219.25
2023-03-15T18:32:53.980Z,100225.19
2023-03-15T18:35:25.484Z,100232.97
2023-03-15T18:37:56.102Z,100231.09
2023-03-15T18:40:27.368Z,100232.06
2023-03-15T18:42:57.130Z,100233.81
2023-03-15T18:45:28.557Z,100258.03
2023-03-15T18:47:57.462Z,100256.28
2023-03-15T18:50:26.365Z,100264.25
2023-03-15T18:52:54.732Z,100264.47
2023-03-15T18:55:22.717Z,100266.19
2023-03-15T18:57:52.386Z,100275.75
2023-03-15T19:00:27.441Z,100279.28
2023-03-15T19:02:59.940Z,100273.44
2023-03-15T19:05:29.099Z,100288.13
2023-03-15T19:07:57.423Z,100291.63
2023-03-15T19:10:25.849Z,100303.03
2023-03-15T19:12:54.932Z,100290.94
2023-03-15T19:15:23.475Z,100299.66
2023-03-15T19:18:11.224Z,100299.69
2023-03-15T19:20:39.206Z,100304.25
2023-03-15T19:23:07.404Z,100310.25
2023-03-15T19:25:35.211Z,100292.31
2023-03-15T19:28:03.691Z,100288.78
2023-03-15T19:30:32.656Z,100309.50
2023-03-15T19:33:01.304Z,100313.06
2023-03-15T19:35:32.587Z,100318.19
2023-03-15T19:38:01.732Z,100320.81
2023-03-15T19:40:29.906Z,100321.78
2023-03-15T19:42:57.712Z,100330.50
2023-03-15T19:45:25.624Z,100328.81
2023-03-15T19:47:54.024Z,100323.59
2023-03-15T19:50:21.973Z,100331.50
2023-03-15T19:52:50.044Z,100332.34
2023-03-15T19:55:19.974Z,100345.25
2023-03-15T19:57:48.101Z,100335.00
2023-03-15T20:00:17.048Z,100340.25
2023-03-15T20:02:45.754Z,100332.44
2023-03-15T20:05:15.501Z,100329.09
2023-03-15T20:07:43.853Z,100340.34
2023-03-15T20:10:13.151Z,100346.44
2023-03-15T20:12:45.332Z,100342.13
2023-03-15T20:15:16.210Z,100340.38
2023-03-15T20:17:44.686Z,100344.72
2023-03-15T20:20:13.852Z,100352.53
2023-03-15T20:22:43.690Z,100348.25
2023-03-15T20:25:16.429Z,100340.53
2023-03-15T20:27:45.007Z,100352.59
2023-03-15T20:30:15.096Z,100362.97
2023-03-15T20:32:43.574Z,100357.78
2023-03-15T20:35:12.144Z,100353.44
2023-03-15T20:37:41.685Z,100357.81
2023-03-15T20:40:14.611Z,100357.78
2023-03-15T20:42:43.724Z,100357.06
2023-03-15T20:45:13.094Z,100358.72
2023-03-15T20:47:41.411Z,100353.59
2023-03-15T20:50:11.303Z,100368.25
2023-03-15T20:52:39.395Z,100362.25
2023-03-15T20:55:08.114Z,100368.25
2023-03-15T20:57:41.773Z,100370.84
2023-03-15T21:00:18.974Z,100375.19
2023-03-15T21:02:47.826Z,100370.91
2023-03-15T21:05:16.533Z,100385.75
2023-03-15T21:07:45.235Z,100386.63
2023-03-15T21:10:13.871Z,100381.47
2023-03-15T21:12:44.081Z,100383.16
2023-03-15T21:15:19.011Z,100392.66
2023-03-15T21:17:50.470Z,100394.41
2023-03-15T21:20:18.749Z,100392.72
2023-03-15T21:22:47.109Z,100387.59
2023-03-15T21:25:15.305Z,100390.19
2023-03-15T21:27:43.980Z,100401.34
2023-03-15T21:30:15.861Z,100401.34
2023-03-15T21:32:44.747Z,100401.44
2023-03-15T21:35:13.386Z,100414.47
2023-03-15T21:37:41.053Z,100403.25
2023-03-15T21:40:10.433Z,100401.56
2023-03-15T21:42:39.136Z,100418.88
2023-03-15T21:45:08.491Z,100416.28
2023-03-15T21:47:36.870Z,100412.88
2023-03-15T21:50:04.998Z,100417.28
2023-03-15T21:52:33.905Z,100414.62
2023-03-15T21:55:01.819Z,100410.28
2023-03-15T21:57:29.770Z,100426.00
2023-03-15T21:59:57.485Z,100423.44
2023-03-15T22:02:25.632Z,100433.81
2023-03-15T22:04:53.421Z,100427.72
2023-03-15T22:07:20.954Z,100435.59
2023-03-15T22:09:48.606Z,100430.53
2023-03-15T22:12:16.625Z,100440.87
2023-03-15T22:14:45.879Z,100433.19
2023-03-15T22:17:14.836Z,100440.91
2023-03-15T22:19:42.763Z,100446.19
2023-03-15T22:22:10.596Z,100456.50
2023-03-15T22:24:38.070Z,100447.88
2023-03-15T22:27:05.858Z,100455.72
2023-03-15T22:29:33.443Z,100452.34
2023-03-15T22:32:00.987Z,100456.59
2023-03-15T22:34:28.824Z,100462.72
2023-03-15T22:36:56.328Z,100460.19
2023-03-15T22:39:23.862Z,100465.38
2023-03-15T22:41:51.975Z,100471.50
2023-03-15T22:44:19.522Z,100473.25
2023-03-15T22:46:47.152Z,100471.53
2023-03-15T22:49:15.383Z,100473.28
2023-03-15T22:51:43.135Z,100468.16
2023-03-15T22:54:11.012Z,100478.38
2023-03-15T22:56:40.900Z,100485.34
2023-03-15T22:59:08.705Z,100488.84
2023-03-15T23:01:36.394Z,100494.91
2023-03-15T23:04:04.327Z,100495.78
2023-03-15T23:06:31.947Z,100492.31
2023-03-15T23:08:59.498Z,100495.75
2023-03-15T23:11:27.638Z,100494.87
2023-03-15T23:13:55.560Z,100487.25
2023-03-15T23:16:23.550Z,100489.72
2023-03-15T23:18:51.911Z,100491.53
2023-03-15T23:21:19.680Z,100501.06
2023-03-15T23:23:47.190Z,100494.16
2023-03-15T23:26:19.592Z,100487.41
2023-03-15T23:28:47.091Z,100497.72
2023-03-15T23:31:15.563Z,100487.41
2023-03-15T23:33:47.178Z,100491.69
2023-03-15T23:36:15.081Z,100501.16
2023-03-15T23:38:42.691Z,100503.75
2023-03-15T23:41:10.204Z,100502.03
2023-03-15T23:43:38.411Z,100505.56
2023-03-15T23:46:06.420Z,100509.91
2023-03-15T23:48:37.062Z,100510.75
2023-03-15T23:51:05.043Z,100515.09
2023-03-15T23:53:32.704Z,100521.16
2023-03-15T23:56:00.398Z,100513.41
2023-03-15T23:58:28.678Z,100526.31
